Time;durP1;ratioP1;P1;durP2;ratioP2;P2;SDS_P1;SDS_P2;PMS_P1;PMS_P2;Temp;Humidity;BMP_temperature;BMP_pressure;BME280_temperature;BME280_humidity;BME280_pressure;Samples;Min_cycle;Max_cycle;Signal;HPM_P1;HPM_P2
2022/11/25 00:01:24;;;;;;;;;1.25;1.00;;;;;12.59;71.94;100316.13;5096486;27;45677;-75
2022/11/25 00:03:52;;;;;;;;;3.00;2.00;;;;;12.56;71.62;100316.41;5096179;27;46477;-75
2022/11/25 00:06:25;;;;;;;;;3.25;2.25;;;;;12.61;71.70;100318.63;5095928;27;46410;-76
2022/11/25 00:08:54;;;;;;;;;3.50;1.50;;;;;12.62;71.45;100317.69;5096101;27;45512;-75
2022/11/25 00:11:20;;;;;;;;;2.50;2.00;;;;;12.61;71.67;100311.59;5096404;27;45655;-76
2022/11/25 00:17:06;;;;;;;;;2.00;2.00;;;;;12.68;71.63;100317.16;5096019;27;45907;-76
2022/11/25 00:19:32;;;;;;;;;2.75;2.25;;;;;12.71;71.46;100322.16;5096265;27;45601;-75
2022/11/25 00:21:57;;;;;;;;;2.75;1.50;;;;;12.68;71.68;100318.97;5094384;27;46038;-75
2022/11/25 00:24:24;;;;;;;;;3.25;2.25;;;;;12.66;71.19;100315.63;5096035;27;45733;-77
2022/11/25 00:26:49;;;;;;;;;4.25;2.25;;;;;12.74;71.57;100315.81;5094671;27;46193;-74
2022/11/25 00:29:15;;;;;;;;;1.50;1.00;;;;;12.63;71.52;100307.00;5096100;27;45533;-75
2022/11/25 00:31:43;;;;;;;;;1.75;1.75;;;;;12.66;71.31;100313.81;5095908;27;45584;-75
2022/11/25 00:34:13;;;;;;;;;2.00;1.00;;;;;12.65;71.46;100311.31;5093922;27;47826;-76
2022/11/25 00:36:44;;;;;;;;;3.75;3.00;;;;;12.75;71.32;100331.44;5094216;27;48179;-76
2022/11/25 00:39:25;;;;;;;;;3.00;2.00;;;;;12.74;71.49;100332.38;5094325;27;45760;-77
2022/11/25 00:44:39;;;;;;;;;2.00;1.00;;;;;12.74;71.41;100337.66;5095515;27;45811;-76
2022/11/25 00:47:14;;;;;;;;;3.00;2.00;;;;;12.74;71.56;100342.91;5095316;27;45988;-75
2022/11/25 00:49:44;;;;;;;;;1.75;1.75;;;;;12.74;71.07;100334.22;5095241;27;45651;-76
2022/11/25 00:52:20;;;;;;;;;3.00;2.00;;;;;12.65;71.41;100324.47;5095374;27;45844;-76
2022/11/25 00:54:47;;;;;;;;;4.25;3.00;;;;;12.69;71.47;100345.09;5095228;27;46419;-75
2022/11/25 00:57:18;;;;;;;;;2.00;1.50;;;;;12.60;71.53;100330.09;5094084;27;47369;-74
2022/11/25 00:59:56;;;;;;;;;3.00;3.00;;;;;12.34;71.19;100297.28;5093611;27;45879;-76
2022/11/25 01:02:26;;;;;;;;;2.25;2.00;;;;;12.33;71.35;100293.00;5095208;27;45701;-76
2022/11/25 01:04:52;;;;;;;;;3.50;2.75;;;;;12.28;71.50;100293.38;5094301;27;47210;-76
2022/11/25 01:07:20;;;;;;;;;1.50;1.50;;;;;12.18;71.40;100285.44;5094240;27;45968;-76
2022/11/25 01:10:09;;;;;;;;;5.50;2.50;;;;;12.58;71.15;100371.44;5095262;27;45578;-76
2022/11/25 01:12:52;;;;;;;;;4.25;2.00;;;;;11.95;71.43;100268.13;5094922;27;45573;-76
2022/11/25 01:15:20;;;;;;;;;3.50;2.75;;;;;12.57;71.52;100367.16;5095213;27;45647;-76
2022/11/25 01:17:46;;;;;;;;;3.00;2.00;;;;;12.21;71.36;100315.84;5093679;27;47651;-75
2022/11/25 01:20:34;;;;;;;;;3.75;2.00;;;;;12.48;71.27;100371.38;5093375;27;45625;-76
2022/11/25 01:22:59;;;;;;;;;4.00;2.00;;;;;12.51;71.36;100373.75;5094939;27;45766;-75
2022/11/25 01:25:28;;;;;;;;;3.75;2.75;;;;;12.51;71.91;100383.44;5094963;27;46203;-76
2022/11/25 01:27:53;;;;;;;;;3.50;2.00;;;;;12.48;71.74;100381.03;5093291;27;47699;-76
2022/11/25 01:30:21;;;;;;;;;2.25;2.00;;;;;12.46;71.52;100386.44;5094914;27;45650;-76
2022/11/25 01:32:47;;;;;;;;;4.00;2.00;;;;;12.39;71.67;100381.81;5095121;27;46013;-76
2022/11/25 01:35:12;;;;;;;;;2.25;2.00;;;;;12.42;71.45;100392.91;5094771;27;45602;-75
2022/11/25 01:37:37;;;;;;;;;3.75;2.00;;;;;12.41;71.48;100391.25;5094872;27;46196;-76
2022/11/25 01:40:03;;;;;;;;;4.00;3.00;;;;;12.39;71.89;100405.47;5094508;27;45716;-76
2022/11/25 01:42:29;;;;;;;;;3.50;1.00;;;;;12.37;71.77;100405.56;5094665;27;45454;-76
2022/11/25 01:48:41;;;;;;;;;1.00;1.00;;;;;12.27;72.04;100412.53;5094423;27;45982;-76
2022/11/25 01:51:20;;;;;;;;;2.00;1.00;;;;;12.24;71.88;100417.22;5094760;27;45625;-77
2022/11/25 01:53:47;;;;;;;;;3.50;3.00;;;;;12.22;71.84;100419.13;5094593;27;45676;-74
2022/11/25 01:56:14;;;;;;;;;2.75;1.25;;;;;12.22;71.91;100416.50;5094178;27;45830;-76
2022/11/25 01:58:44;;;;;;;;;2.00;1.00;;;;;12.20;72.22;100421.88;5093960;27;47292;-74
2022/11/25 02:01:10;;;;;;;;;0.75;0.75;;;;;12.12;72.36;100422.50;5094523;27;45762;-75
2022/11/25 02:04:09;;;;;;;;;1.00;1.00;;;;;11.89;71.96;100397.25;5094568;27;45797;-75
2022/11/25 02:06:46;;;;;;;;;1.25;1.25;;;;;11.65;72.40;100368.53;5092278;27;47092;-75
2022/11/25 02:09:33;;;;;;;;;2.25;1.50;;;;;12.06;72.42;100441.38;5092695;27;47998;-76
2022/11/25 02:12:22;;;;;;;;;3.00;2.75;;;;;11.93;72.27;100414.41;5094145;27;45769;-76
2022/11/25 02:14:49;;;;;;;;;2.75;2.00;;;;;12.03;72.40;100440.78;5093640;27;45950;-74
2022/11/25 02:17:15;;;;;;;;;2.75;2.00;;;;;11.73;72.62;100395.00;5093464;27;46480;-76
2022/11/25 02:19:59;;;;;;;;;1.50;1.00;;;;;11.99;72.59;100436.72;5093826;27;47089;-74
2022/11/25 02:22:49;;;;;;;;;2.00;1.50;;;;;11.94;72.30;100433.63;5093913;27;45773;-76
2022/11/25 02:25:15;;;;;;;;;1.00;1.00;;;;;11.95;72.61;100441.38;5086514;27;45921;-75
2022/11/25 02:27:44;;;;;;;;;4.00;1.75;;;;;11.93;72.40;100445.09;5094052;27;45914;-75
2022/11/25 02:30:10;;;;;;;;;3.00;2.00;;;;;11.91;72.20;100449.63;5093204;27;46006;-75
2022/11/25 02:32:42;;;;;;;;;3.50;2.00;;;;;11.90;72.60;100456.66;5093765;27;45674;-74
2022/11/25 02:35:48;;;;;;;;;0.00;0.00;;;;;11.85;72.42;100458.00;5093583;27;45515;-75
2022/11/25 02:38:19;;;;;;;;;1.00;1.00;;;;;11.82;72.63;100469.59;5030630;28;46312;-76
2022/11/25 02:40:49;;;;;;;;;4.00;2.00;;;;;11.78;72.56;100474.22;5030513;28;46443;-75
2022/11/25 02:43:15;;;;;;;;;2.00;1.00;;;;;11.68;72.60;100457.50;5031031;28;45569;-74
2022/11/25 02:45:57;;;;;;;;;2.25;1.00;;;;;11.72;72.76;100474.66;5030905;28;45549;-75
2022/11/25 02:48:23;;;;;;;;;2.25;1.00;;;;;11.69;72.74;100469.66;5013938;28;48356;-75
2022/11/25 02:50:48;;;;;;;;;2.00;1.00;;;;;11.66;72.84;100480.38;5013648;28;47331;-76
2022/11/25 02:53:15;;;;;;;;;1.00;1.00;;;;;11.67;72.83;100486.47;5030782;28;45624;-74
2022/11/25 02:55:40;;;;;;;;;4.00;1.25;;;;;11.64;72.71;100486.72;5013877;28;45946;-75
2022/11/25 02:58:09;;;;;;;;;1.00;1.00;;;;;11.63;72.99;100487.66;5030867;28;45981;-77
2022/11/25 03:01:02;;;;;;;;;3.00;1.00;;;;;11.59;72.77;100488.88;5030548;28;46540;-75
2022/11/25 03:03:31;;;;;;;;;2.00;2.00;;;;;11.59;73.21;100494.94;5013704;28;45714;-76
2022/11/25 03:05:59;;;;;;;;;1.25;1.25;;;;;11.26;73.16;100442.44;5029579;28;46061;-76
2022/11/25 03:08:42;;;;;;;;;1.50;1.50;;;;;11.58;73.00;100509.03;5013767;28;46316;-75
2022/11/25 03:11:08;;;;;;;;;1.00;1.00;;;;;11.49;73.02;100486.13;5030486;28;45536;-75
2022/11/25 03:13:34;;;;;;;;;2.00;2.00;;;;;11.40;72.93;100480.72;5037078;28;45644;-75
2022/11/25 03:16:00;;;;;;;;;3.50;1.50;;;;;11.53;72.99;100503.28;5070859;28;45646;-76
2022/11/25 03:18:25;;;;;;;;;3.00;1.00;;;;;11.55;73.00;100517.09;5070822;28;46361;-75
2022/11/25 03:20:55;;;;;;;;;2.25;1.00;;;;;11.41;72.96;100495.50;5053962;28;46007;-74
2022/11/25 03:23:21;;;;;;;;;2.75;1.25;;;;;11.53;73.02;100526.91;5070585;28;45668;-74
2022/11/25 03:25:49;;;;;;;;;2.00;2.00;;;;;11.53;73.02;100531.31;5070685;28;45919;-75
2022/11/25 03:28:15;;;;;;;;;1.25;1.00;;;;;11.47;73.16;100524.75;5073130;28;46591;-75
2022/11/25 03:30:45;;;;;;;;;2.25;1.50;;;;;11.45;73.11;100526.63;5074105;28;46290;-75
2022/11/25 03:33:25;;;;;;;;;2.00;2.00;;;;;11.51;73.17;100536.66;5073855;27;45856;-76
2022/11/25 03:35:51;;;;;;;;;2.25;1.50;;;;;11.47;73.25;100534.41;5059302;28;45999;-75
2022/11/25 03:38:16;;;;;;;;;2.00;1.25;;;;;11.39;73.29;100529.72;5074149;28;46434;-76
2022/11/25 03:40:41;;;;;;;;;2.75;2.00;;;;;11.46;73.00;100551.91;5074245;28;45944;-78
2022/11/25 03:43:07;;;;;;;;;3.00;1.50;;;;;11.35;73.32;100538.78;5073998;28;46253;-75
2022/11/25 03:46:02;;;;;;;;;2.00;1.75;;;;;11.43;73.30;100556.56;5091089;27;46033;-75
2022/11/25 03:48:27;;;;;;;;;2.00;2.00;;;;;11.42;73.33;100560.16;5096360;27;46536;-77
2022/11/25 03:50:53;;;;;;;;;3.00;1.00;;;;;11.36;73.22;100561.44;5096270;27;46294;-74
2022/11/25 03:53:21;;;;;;;;;3.75;2.00;;;;;11.29;73.34;100552.34;5094832;27;46009;-75
2022/11/25 03:55:47;;;;;;;;;2.25;1.75;;;;;11.42;73.26;100576.72;5095982;27;45698;-75
2022/11/25 03:58:15;;;;;;;;;3.00;2.00;;;;;11.42;73.16;100570.63;5096380;27;47366;-75
2022/11/25 04:00:40;;;;;;;;;2.00;1.00;;;;;11.42;73.31;100573.25;5096338;27;46030;-75
2022/11/25 04:03:06;;;;;;;;;1.50;1.00;;;;;11.38;73.28;100567.41;5094993;27;45769;-75
2022/11/25 04:05:31;;;;;;;;;7.00;1.00;;;;;11.43;73.40;100582.81;5096115;27;45689;-75
2022/11/25 04:07:56;;;;;;;;;3.75;2.00;;;;;11.43;73.39;100578.41;5078979;27;46304;-75
2022/11/25 04:10:22;;;;;;;;;4.00;2.00;;;;;11.42;73.34;100591.63;5075961;28;45773;-75
2022/11/25 04:12:47;;;;;;;;;4.75;2.00;;;;;11.41;73.37;100582.06;5075863;28;45594;-75
2022/11/25 04:15:18;;;;;;;;;3.75;2.75;;;;;11.33;73.44;100580.03;5075928;28;45627;-75
2022/11/25 04:17:43;;;;;;;;;3.75;2.00;;;;;11.39;73.40;100590.06;5075743;28;47445;-75
2022/11/25 04:20:11;;;;;;;;;1.50;1.00;;;;;11.41;73.56;100584.69;5075556;28;46782;-75
2022/11/25 04:22:36;;;;;;;;;1.50;1.00;;;;;11.40;73.45;100596.13;5075784;28;45593;-73
2022/11/25 04:25:02;;;;;;;;;3.00;1.25;;;;;11.31;73.44;100597.66;5075703;28;45711;-75
2022/11/25 04:27:27;;;;;;;;;2.50;2.00;;;;;11.35;73.53;100606.97;5057140;28;48395;-76
2022/11/25 04:29:52;;;;;;;;;5.00;3.00;;;;;11.34;73.54;100606.13;5075473;28;46113;-75
2022/11/25 04:32:18;;;;;;;;;2.25;2.00;;;;;11.34;73.55;100618.41;5075426;28;45596;-75
2022/11/25 04:34:43;;;;;;;;;2.50;1.25;;;;;11.33;73.55;100614.97;5075506;28;45844;-76
2022/11/25 04:37:08;;;;;;;;;1.00;1.00;;;;;11.33;73.60;100620.22;5057025;28;47678;-74
2022/11/25 04:39:34;;;;;;;;;2.25;1.75;;;;;11.33;73.53;100625.47;5055769;28;46072;-75
2022/11/25 04:44:43;;;;;;;;;4.50;2.00;;;;;11.32;73.43;100634.28;5074901;28;45691;-74
2022/11/25 04:50:36;;;;;;;;;1.00;1.00;;;;;11.31;73.69;100652.75;5074887;28;45820;-75
2022/11/25 04:53:01;;;;;;;;;3.25;1.75;;;;;11.29;73.58;100649.38;5056549;28;45837;-76
2022/11/25 04:55:27;;;;;;;;;2.75;1.50;;;;;11.29;73.61;100654.63;5075239;28;45599;-76
2022/11/25 04:57:52;;;;;;;;;2.00;1.75;;;;;11.09;73.53;100621.16;5074977;28;45551;-73
2022/11/25 05:00:18;;;;;;;;;2.75;2.00;;;;;11.26;73.55;100653.09;5075078;28;45592;-76
2022/11/25 05:02:43;;;;;;;;;3.00;2.00;;;;;11.22;73.73;100648.19;5074657;28;45486;-75
2022/11/25 05:05:09;;;;;;;;;4.00;3.00;;;;;11.19;73.64;100643.97;5075037;28;45524;-75
2022/11/25 05:07:34;;;;;;;;;2.25;1.00;;;;;11.19;73.57;100645.78;5088301;27;46517;-74
2022/11/25 05:10:00;;;;;;;;;3.25;2.00;;;;;11.21;73.70;100657.00;5095297;27;46056;-75
2022/11/25 05:12:27;;;;;;;;;3.50;2.25;;;;;11.21;73.36;100657.84;5094966;27;45589;-74
2022/11/25 05:14:54;;;;;;;;;2.00;1.00;;;;;11.21;73.59;100667.47;5095096;27;45747;-75
2022/11/25 05:20:40;;;;;;;;;2.50;1.50;;;;;11.13;73.72;100677.69;5094757;27;45872;-76
2022/11/25 05:23:06;;;;;;;;;3.00;3.00;;;;;11.19;73.62;100691.19;5095180;27;45684;-74
2022/11/25 05:25:31;;;;;;;;;3.00;2.00;;;;;11.18;73.73;100686.03;5094990;27;45836;-75
2022/11/25 05:27:56;;;;;;;;;2.00;2.00;;;;;11.19;73.67;100687.72;5094995;27;46395;-76
2022/11/25 05:30:22;;;;;;;;;2.00;1.00;;;;;11.13;73.85;100680.28;5094426;27;45752;-75
2022/11/25 05:36:09;;;;;;;;;2.25;2.25;;;;;11.10;73.83;100698.88;5094990;27;45656;-75
2022/11/25 05:38:34;;;;;;;;;2.75;2.00;;;;;11.08;73.79;100693.75;5094832;27;47236;-73
2022/11/25 05:41:03;;;;;;;;;4.25;2.50;;;;;11.11;73.72;100711.91;5094548;27;46868;-75
2022/11/25 05:43:28;;;;;;;;;3.00;2.00;;;;;11.08;73.67;100711.25;5094389;27;45665;-75
2022/11/25 05:45:54;;;;;;;;;3.00;2.00;;;;;11.06;73.89;100716.63;5095035;27;45796;-75
2022/11/25 05:48:19;;;;;;;;;4.00;3.00;;;;;11.06;73.89;100721.03;5094649;27;46486;-76
2022/11/25 05:50:45;;;;;;;;;4.00;2.00;;;;;11.00;73.84;100710.97;5093998;27;47072;-76
2022/11/25 05:53:10;;;;;;;;;3.75;2.00;;;;;11.01;73.68;100716.13;5094552;27;45939;-74
2022/11/25 05:55:35;;;;;;;;;4.75;2.00;;;;;11.00;73.87;100719.69;5094539;27;45945;-76
2022/11/25 05:58:01;;;;;;;;;2.25;1.75;;;;;11.00;73.79;100718.84;5094672;27;46428;-75
2022/11/25 06:00:27;;;;;;;;;4.00;1.75;;;;;10.97;73.73;100722.50;5094472;27;46068;-74
2022/11/25 06:06:14;;;;;;;;;3.25;2.00;;;;;10.88;74.11;100728.41;5094027;27;45542;-76
2022/11/25 06:08:42;;;;;;;;;1.00;0.75;;;;;10.78;73.95;100714.28;5094203;27;46571;-75
2022/11/25 06:11:17;;;;;;;;;6.50;3.00;;;;;10.86;73.86;100741.63;5094082;27;46182;-75
2022/11/25 06:24:46;;;;;;;;;;;;;;;;;;;;;
2022/11/25 06:27:17;;;;;;;;;4.50;2.25;;;;;10.81;73.71;100755.97;4818835;29;72960;-77
2022/11/25 06:30:55;;;;;;;;;;;;;;;;;;;;;
2022/11/25 06:33:03;;;;;;;;;2.00;1.75;;;;;10.45;73.57;100710.44;4780692;29;46035;-75
2022/11/25 06:42:34;;;;;;;;;4.50;3.00;;;;;10.76;73.62;100784.28;5101770;27;46407;-76
2022/11/25 06:45:00;;;;;;;;;7.75;3.50;;;;;10.72;73.71;100791.53;5076714;27;45948;-75
2022/11/25 06:47:25;;;;;;;;;4.00;2.00;;;;;10.68;73.49;100776.97;5085735;27;46138;-76
2022/11/25 06:49:50;;;;;;;;;2.75;2.00;;;;;10.68;73.44;100781.38;5082495;27;45959;-75
2022/11/25 06:52:16;;;;;;;;;4.00;2.00;;;;;10.77;73.50;100801.69;5084948;27;46382;-76
2022/11/25 06:54:41;;;;;;;;;2.00;2.00;;;;;10.76;73.42;100800.84;5079548;27;45959;-74
2022/11/25 06:57:08;;;;;;;;;2.00;1.75;;;;;10.70;73.25;100788.16;5079364;27;46048;-73
2022/11/25 06:59:33;;;;;;;;;4.50;1.50;;;;;10.75;73.39;100793.94;5083992;27;47737;-73
2022/11/25 07:01:59;;;;;;;;;3.75;2.00;;;;;10.71;73.38;100794.25;5082068;27;46410;-73
2022/11/25 07:04:25;;;;;;;;;6.50;2.00;;;;;10.75;73.53;100806.19;5069474;27;45820;-74
2022/11/25 07:06:50;;;;;;;;;2.00;2.00;;;;;10.73;73.46;100792.38;5070378;27;46006;-72
2022/11/25 07:09:18;;;;;;;;;6.50;3.00;;;;;10.76;73.29;100795.63;5070656;27;47020;-74
2022/11/25 07:11:44;;;;;;;;;6.50;3.00;;;;;10.68;73.34;100800.56;5071682;27;46405;-74
2022/11/25 07:14:12;;;;;;;;;4.50;2.00;;;;;10.67;73.46;100788.41;5069397;27;47458;-74
2022/11/25 07:16:42;;;;;;;;;3.00;3.00;;;;;10.78;73.38;100798.97;5082700;27;46118;-73
2022/11/25 07:19:10;;;;;;;;;9.50;6.00;;;;;10.79;73.26;100810.31;5077091;27;46425;-76
2022/11/25 07:21:36;;;;;;;;;3.00;3.00;;;;;10.79;73.20;100807.69;5076545;27;46743;-74
2022/11/25 07:24:04;;;;;;;;;3.00;2.00;;;;;10.79;73.30;100815.53;5084698;27;46109;-75
2022/11/25 07:26:33;;;;;;;;;4.00;2.50;;;;;10.80;73.17;100819.81;5085437;27;45668;-74
2022/11/25 07:29:03;;;;;;;;;2.25;2.00;;;;;10.74;73.10;100821.06;5085048;27;45744;-74
2022/11/25 07:31:30;;;;;;;;;3.50;3.50;;;;;10.82;73.13;100836.28;5079992;27;46554;-76
2022/11/25 07:34:10;;;;;;;;;2.75;2.75;;;;;10.81;73.23;100835.44;5071067;27;46053;-75
2022/11/25 07:36:39;;;;;;;;;1.50;1.00;;;;;10.76;73.24;100834.09;5085619;27;45747;-74
2022/11/25 07:39:07;;;;;;;;;3.00;3.00;;;;;10.78;73.04;100840.91;5083644;27;46515;-75
2022/11/25 07:41:33;;;;;;;;;4.00;4.00;;;;;10.87;73.28;100860.41;5084961;27;46135;-75
2022/11/25 07:44:01;;;;;;;;;6.00;3.50;;;;;10.88;73.09;100859.47;5084613;27;46185;-74
2022/11/25 07:46:32;;;;;;;;;2.50;2.00;;;;;10.82;72.75;100852.84;5083391;27;46145;-75
2022/11/25 07:49:00;;;;;;;;;7.50;5.50;;;;;10.90;72.78;100866.25;5079018;27;46291;-78
2022/11/25 07:51:27;;;;;;;;;4.50;3.00;;;;;10.88;72.85;100875.19;5082305;27;46174;-75
2022/11/25 07:53:55;;;;;;;;;4.75;2.75;;;;;10.84;72.72;100869.31;5070033;27;45868;-75
2022/11/25 07:56:21;;;;;;;;;4.00;3.00;;;;;10.83;72.92;100870.25;5058424;28;46064;-77
2022/11/25 07:58:47;;;;;;;;;4.00;3.00;;;;;10.81;72.87;100880.00;5071208;28;45763;-76
2022/11/25 08:01:14;;;;;;;;;5.50;3.00;;;;;10.78;72.94;100876.75;5069754;27;46683;-74
2022/11/25 08:03:41;;;;;;;;;7.00;6.00;;;;;10.78;72.98;100887.25;5069040;27;45755;-77
2022/11/25 08:06:10;;;;;;;;;4.50;4.00;;;;;10.78;72.81;100903.81;5066339;28;45692;-76
2022/11/25 08:08:37;;;;;;;;;7.25;6.00;;;;;10.79;72.76;100904.66;5071270;27;46031;-76
2022/11/25 08:11:14;;;;;;;;;3.75;3.00;;;;;10.79;72.96;100915.13;5070393;28;46078;-76
2022/11/25 08:13:41;;;;;;;;;3.00;3.00;;;;;10.78;72.94;100927.41;5070976;28;45690;-75
2022/11/25 08:16:07;;;;;;;;;7.00;5.00;;;;;10.79;72.91;100928.25;5069194;28;46288;-76
2022/11/25 08:18:32;;;;;;;;;6.00;4.50;;;;;10.78;72.82;100942.28;5070736;27;45969;-75
2022/11/25 08:21:03;;;;;;;;;4.00;3.00;;;;;10.76;72.63;100945.00;5068493;28;46139;-76
2022/11/25 08:23:30;;;;;;;;;7.00;4.00;;;;;10.81;72.73;100949.91;5069283;28;45624;-74
2022/11/25 08:25:55;;;;;;;;;7.00;4.00;;;;;10.80;72.82;100948.25;5069541;28;45997;-75
2022/11/25 08:28:21;;;;;;;;;3.75;3.50;;;;;10.83;72.79;100945.44;5070844;27;46541;-77
2022/11/25 08:30:46;;;;;;;;;6.00;2.25;;;;;10.85;72.66;100957.47;5068813;28;47260;-75
2022/11/25 08:33:12;;;;;;;;;6.25;4.00;;;;;10.87;72.78;100960.00;5069877;27;45619;-74
2022/11/25 08:35:37;;;;;;;;;8.00;3.75;;;;;10.87;72.71;100955.59;5070313;28;46175;-73
2022/11/25 08:38:05;;;;;;;;;3.25;3.25;;;;;10.89;72.61;100969.47;5067262;27;46266;-75
2022/11/25 08:40:31;;;;;;;;;4.00;3.00;;;;;10.90;72.79;100951.94;5067802;28;47264;-74
2022/11/25 08:42:57;;;;;;;;;7.50;4.00;;;;;10.87;72.66;100958.22;5070135;27;46035;-74
2022/11/25 08:45:22;;;;;;;;;5.00;4.00;;;;;10.91;72.71;100967.56;5068900;28;46237;-73
2022/11/25 08:47:47;;;;;;;;;3.00;3.00;;;;;10.95;72.57;100976.06;5070672;27;47283;-74
2022/11/25 08:50:14;;;;;;;;;32.00;26.75;;;;;10.96;72.67;100976.91;5069695;27;46010;-73
2022/11/25 08:52:39;;;;;;;;;11.25;8.50;;;;;10.98;72.39;100986.34;5063626;28;45658;-74
2022/11/25 08:55:05;;;;;;;;;10.75;8.50;;;;;11.00;72.42;100994.97;5065192;28;46048;-74
2022/11/25 08:57:31;;;;;;;;;5.50;4.00;;;;;10.90;72.33;100988.66;5069197;28;47641;-74
2022/11/25 08:59:56;;;;;;;;;7.25;6.00;;;;;10.99;72.49;101000.28;5069788;28;46083;-74
2022/11/25 09:02:21;;;;;;;;;3.50;3.50;;;;;11.02;72.44;100997.44;5069981;27;45807;-74
2022/11/25 09:04:47;;;;;;;;;4.00;3.00;;;;;11.04;72.46;101006.91;5067592;28;46000;-75
2022/11/25 09:07:12;;;;;;;;;8.00;4.00;;;;;11.08;72.33;101012.78;5070431;27;46214;-76
2022/11/25 09:09:38;;;;;;;;;5.50;4.25;;;;;11.10;72.14;101016.16;5069933;27;45970;-75
2022/11/25 09:12:04;;;;;;;;;3.00;3.00;;;;;11.10;72.11;101010.91;5066356;27;45959;-76
2022/11/25 09:14:29;;;;;;;;;6.25;6.00;;;;;11.11;72.08;101023.94;5069730;28;45750;-75
2022/11/25 09:16:55;;;;;;;;;5.50;4.00;;;;;11.13;72.02;101026.41;5069874;27;46542;-75
2022/11/25 09:19:21;;;;;;;;;4.50;3.50;;;;;11.13;72.05;101026.41;5069075;27;46213;-75
2022/11/25 09:21:47;;;;;;;;;4.50;3.25;;;;;11.14;72.09;101034.19;5069848;27;45707;-75
2022/11/25 09:24:12;;;;;;;;;3.50;2.25;;;;;11.12;72.05;101030.00;5069661;28;45776;-76
2022/11/25 09:26:39;;;;;;;;;5.00;4.50;;;;;11.18;71.80;101045.31;5070219;27;47168;-75
2022/11/25 09:29:05;;;;;;;;;6.25;3.00;;;;;11.10;71.69;101037.13;5069713;27;46161;-76
2022/11/25 09:31:32;;;;;;;;;7.25;4.00;;;;;11.10;71.75;101050.25;5070219;27;45968;-76
2022/11/25 09:33:58;;;;;;;;;4.00;3.00;;;;;11.11;71.77;101062.41;5069941;27;46295;-75
2022/11/25 09:36:24;;;;;;;;;4.00;2.25;;;;;11.09;71.92;101064.28;5064514;28;47767;-74
2022/11/25 09:38:50;;;;;;;;;4.00;3.00;;;;;11.07;71.94;101058.28;5066724;28;45938;-75
2022/11/25 09:46:40;;;;;;;;;5.50;4.00;;;;;11.07;71.95;101066.16;5068653;27;45791;-75
2022/11/25 09:47:35;;;;;;;;;4.50;3.50;;;;;11.08;72.04;101073.94;5062667;28;46003;-74
2022/11/25 09:50:31;;;;;;;;;6.00;2.50;;;;;11.09;71.91;101086.09;5068437;27;47309;-75
2022/11/25 09:53:02;;;;;;;;;4.50;3.25;;;;;11.11;71.84;101086.00;5068675;27;45921;-74
2022/11/25 09:55:35;;;;;;;;;5.75;3.25;;;;;11.12;71.67;101091.13;5064756;27;46081;-75
2022/11/25 09:58:24;;;;;;;;;3.75;3.00;;;;;11.14;71.86;101101.53;5068883;27;45758;-76
2022/11/25 10:00:51;;;;;;;;;2.00;1.00;;;;;11.14;71.67;101104.16;5069027;27;46082;-75
2022/11/25 10:03:42;;;;;;;;;5.25;2.75;;;;;11.12;71.52;101101.63;5068444;27;46254;-74
2022/11/25 10:06:16;;;;;;;;;6.00;3.00;;;;;11.15;71.39;101118.97;5064784;28;46327;-74
2022/11/25 10:08:49;;;;;;;;;2.00;1.00;;;;;11.12;71.55;101127.03;5069218;27;46175;-75
2022/11/25 10:11:42;;;;;;;;;2.25;2.25;;;;;11.11;71.48;101110.47;5068734;28;46238;-75
2022/11/25 10:14:20;;;;;;;;;7.25;3.50;;;;;11.10;71.49;101121.88;5064772;28;46017;-76
2022/11/25 10:17:13;;;;;;;;;5.00;3.00;;;;;11.16;71.50;101136.38;5069099;27;45940;-74
2022/11/25 10:20:00;;;;;;;;;7.00;3.00;;;;;11.19;71.47;101146.66;5068104;27;46812;-75
2022/11/25 10:22:58;;;;;;;;;8.25;3.75;;;;;11.21;71.35;101144.78;5064018;28;46072;-76
2022/11/25 10:25:28;;;;;;;;;7.00;3.00;;;;;11.22;71.34;101141.22;5005339;28;45785;-73
2022/11/25 10:28:28;;;;;;;;;3.25;3.25;;;;;11.20;71.27;101143.94;5006531;28;45674;-74
2022/11/25 10:31:04;;;;;;;;;3.00;2.50;;;;;11.22;71.26;101154.34;5005034;28;45860;-75
2022/11/25 10:33:31;;;;;;;;;7.00;4.00;;;;;11.20;71.38;101154.44;5006108;28;47168;-76
2022/11/25 10:36:20;;;;;;;;;7.50;4.00;;;;;11.22;71.20;101152.56;5005072;28;45919;-76
2022/11/25 10:39:03;;;;;;;;;3.75;3.00;;;;;11.24;71.16;101150.66;5005684;28;45929;-74
2022/11/25 10:41:31;;;;;;;;;4.00;3.00;;;;;11.25;71.19;101162.00;5005622;28;46993;-74
2022/11/25 10:43:57;;;;;;;;;5.00;3.75;;;;;11.24;71.19;101150.66;5005263;28;47902;-73
2022/11/25 10:46:43;;;;;;;;;6.75;4.00;;;;;11.23;71.31;101148.97;5005818;28;45812;-75
2022/11/25 10:49:22;;;;;;;;;3.50;3.50;;;;;11.30;71.23;101158.13;4994129;28;45820;-74
2022/11/25 10:51:49;;;;;;;;;6.75;3.00;;;;;11.28;71.05;101146.06;5005290;28;47503;-74
2022/11/25 10:54:18;;;;;;;;;6.00;5.00;;;;;11.35;71.07;101163.91;5008803;28;45818;-74
2022/11/25 10:56:55;;;;;;;;;5.00;3.00;;;;;11.40;71.17;101168.00;5005640;28;46026;-76
2022/11/25 10:59:31;;;;;;;;;4.50;3.50;;;;;11.43;71.04;101171.31;5005521;28;46047;-75
2022/11/25 11:02:20;;;;;;;;;7.50;3.50;;;;;11.47;70.98;101178.03;5037187;28;46379;-75
2022/11/25 11:05:01;;;;;;;;;7.00;3.25;;;;;11.51;71.08;101184.75;5067971;27;46175;-74
2022/11/25 11:07:32;;;;;;;;;7.00;4.00;;;;;11.55;70.86;101180.97;5068772;27;46143;-73
2022/11/25 11:10:24;;;;;;;;;5.00;2.00;;;;;11.57;70.67;101179.09;5068119;27;45907;-75
2022/11/25 11:13:04;;;;;;;;;5.75;2.75;;;;;11.62;70.54;101181.41;4985318;28;48333;-75
2022/11/25 11:15:32;;;;;;;;;6.00;3.00;;;;;11.61;70.80;101177.09;4988008;28;48038;-75
2022/11/25 11:18:12;;;;;;;;;3.00;1.50;;;;;11.68;70.51;101192.34;5000270;28;45818;-76
2022/11/25 11:20:45;;;;;;;;;5.00;3.00;;;;;11.67;70.61;101177.53;4985846;28;45801;-76
2022/11/25 11:23:13;;;;;;;;;6.00;3.00;;;;;11.76;70.50;101186.63;4993926;28;47044;-76
2022/11/25 11:25:43;;;;;;;;;1.50;1.00;;;;;11.76;70.10;101195.34;4990859;28;46207;-76
2022/11/25 11:28:37;;;;;;;;;3.00;2.50;;;;;11.83;70.23;101195.75;4989009;28;46210;-75
2022/11/25 11:31:06;;;;;;;;;5.25;2.00;;;;;11.91;69.85;101208.38;4993710;28;46007;-74
2022/11/25 11:33:47;;;;;;;;;3.00;1.25;;;;;11.94;69.85;101200.28;5001073;28;46724;-73
2022/11/25 11:36:12;;;;;;;;;6.25;2.00;;;;;11.96;69.82;101204.50;5009644;28;45785;-75
2022/11/25 11:38:55;;;;;;;;;5.75;3.25;;;;;12.00;69.66;101210.38;4994361;28;45777;-76
2022/11/25 11:41:29;;;;;;;;;4.25;3.00;;;;;12.07;69.52;101214.28;4999247;28;45876;-75
2022/11/25 11:44:21;;;;;;;;;5.00;1.75;;;;;12.08;69.33;101211.56;4994740;28;46160;-76
2022/11/25 11:46:55;;;;;;;;;5.00;2.25;;;;;12.14;69.32;101220.81;4954147;28;47251;-75
2022/11/25 11:49:36;;;;;;;;;2.00;2.00;;;;;12.18;69.28;101209.16;4973724;28;45811;-75
2022/11/25 11:52:29;;;;;;;;;3.25;1.50;;;;;12.17;69.14;101202.22;5046712;28;45865;-76
2022/11/25 11:55:13;;;;;;;;;3.00;2.00;;;;;12.23;69.33;101204.44;5032354;28;47718;-75
2022/11/25 11:57:58;;;;;;;;;4.75;2.75;;;;;12.24;68.90;101200.03;5048778;28;45993;-76
2022/11/25 12:00:25;;;;;;;;;2.25;1.75;;;;;12.35;68.72;101214.09;5036364;28;45901;-73
2022/11/25 12:03:00;;;;;;;;;1.00;0.00;;;;;12.41;68.57;101215.47;5046721;28;46102;-74
2022/11/25 12:05:30;;;;;;;;;3.00;1.25;;;;;12.44;68.85;101207.34;5040398;28;46300;-74
2022/11/25 12:08:41;;;;;;;;;2.00;1.50;;;;;12.50;68.66;101220.94;5047937;28;46171;-73
2022/11/25 12:11:17;;;;;;;;;1.00;1.00;;;;;12.53;68.10;101209.34;5041452;28;46229;-74
2022/11/25 12:14:10;;;;;;;;;2.50;1.00;;;;;12.60;68.29;101227.22;5047262;28;45971;-75
2022/11/25 12:16:39;;;;;;;;;5.25;2.00;;;;;12.60;67.87;101229.84;5036123;28;47707;-75
2022/11/25 12:19:20;;;;;;;;;3.75;3.25;;;;;12.70;67.66;101244.97;5045170;28;46184;-76
2022/11/25 12:21:49;;;;;;;;;3.00;2.00;;;;;12.73;67.98;101235.09;5047577;28;45831;-76
2022/11/25 12:24:28;;;;;;;;;2.00;1.00;;;;;12.77;67.28;101247.06;5061800;28;45742;-77
2022/11/25 12:27:02;;;;;;;;;3.75;2.00;;;;;12.83;67.44;101237.91;5070605;27;47661;-74
2022/11/25 12:29:49;;;;;;;;;3.00;1.75;;;;;12.86;67.12;101241.16;5070087;27;46431;-76
2022/11/25 12:32:20;;;;;;;;;4.00;1.00;;;;;12.89;66.81;101250.63;5070208;28;46003;-77